sensor_id;sensor_type;location;lat;lon;timestamp;P1;durP1;ratioP1;P2;durP2;ratioP2
63965;SDS011;50151;52.030;5.350;2023-07-24T00:00:19;3.03;;;2.50;;
63965;SDS011;50151;52.030;5.350;2023-07-24T00:02:46;3.53;;;2.78;;
63965;SDS011;50151;52.030;5.350;2023-07-24T00:05:13;4.20;;;2.90;;
63965;SDS011;50151;52.030;5.350;2023-07-24T00:07:40;4.03;;;2.90;;
63965;SDS011;50151;52.030;5.350;2023-07-24T00:10:06;3.40;;;2.50;;
63965;SDS011;50151;52.030;5.350;2023-07-24T00:12:33;5.93;;;3.10;;
63965;SDS011;50151;52.030;5.350;2023-07-24T00:15:00;3.30;;;2.88;;
63965;SDS011;50151;52.030;5.350;2023-07-24T00:17:27;3.70;;;3.17;;
63965;SDS011;50151;52.030;5.350;2023-07-24T00:19:54;3.20;;;2.85;;
63965;SDS011;50151;52.030;5.350;2023-07-24T00:22:20;3.97;;;2.88;;
63965;SDS011;50151;52.030;5.350;2023-07-24T00:24:47;3.92;;;2.78;;
63965;SDS011;50151;52.030;5.350;2023-07-24T00:27:14;6.60;;;3.22;;
63965;SDS011;50151;52.030;5.350;2023-07-24T00:29:41;4.05;;;3.00;;
63965;SDS011;50151;52.030;5.350;2023-07-24T00:32:08;3.88;;;3.33;;
63965;SDS011;50151;52.030;5.350;2023-07-24T00:34:34;3.70;;;2.95;;
63965;SDS011;50151;52.030;5.350;2023-07-24T00:37:01;4.00;;;2.80;;
63965;SDS011;50151;52.030;5.350;2023-07-24T00:39:28;3.20;;;2.90;;
63965;SDS011;50151;52.030;5.350;2023-07-24T00:41:55;3.85;;;2.85;;
63965;SDS011;50151;52.030;5.350;2023-07-24T00:44:22;3.53;;;2.80;;
63965;SDS011;50151;52.030;5.350;2023-07-24T00:46:49;4.85;;;2.78;;
63965;SDS011;50151;52.030;5.350;2023-07-24T00:49:16;4.15;;;3.20;;
63965;SDS011;50151;52.030;5.350;2023-07-24T00:51:43;4.07;;;3.08;;
63965;SDS011;50151;52.030;5.350;2023-07-24T00:54:10;4.43;;;3.10;;
63965;SDS011;50151;52.030;5.350;2023-07-24T00:56:38;4.50;;;3.60;;
63965;SDS011;50151;52.030;5.350;2023-07-24T00:59:04;3.65;;;3.15;;
63965;SDS011;50151;52.030;5.350;2023-07-24T01:01:31;4.55;;;3.53;;
63965;SDS011;50151;52.030;5.350;2023-07-24T01:03:58;6.03;;;3.00;;
63965;SDS011;50151;52.030;5.350;2023-07-24T01:06:25;3.30;;;2.95;;
63965;SDS011;50151;52.030;5.350;2023-07-24T01:08:52;3.35;;;3.05;;
63965;SDS011;50151;52.030;5.350;2023-07-24T01:11:19;3.88;;;3.10;;
63965;SDS011;50151;52.030;5.350;2023-07-24T01:16:44;3.67;;;2.65;;
63965;SDS011;50151;52.030;5.350;2023-07-24T01:19:20;3.67;;;2.78;;
63965;SDS011;50151;52.030;5.350;2023-07-24T01:22:12;2.65;;;2.45;;
63965;SDS011;50151;52.030;5.350;2023-07-24T01:27:49;6.40;;;2.58;;
63965;SDS011;50151;52.030;5.350;2023-07-24T01:30:18;2.75;;;2.30;;
63965;SDS011;50151;52.030;5.350;2023-07-24T01:32:46;3.17;;;2.42;;
63965;SDS011;50151;52.030;5.350;2023-07-24T01:35:13;2.97;;;2.38;;
63965;SDS011;50151;52.030;5.350;2023-07-24T01:37:40;3.15;;;2.30;;
63965;SDS011;50151;52.030;5.350;2023-07-24T01:40:09;2.83;;;2.30;;
63965;SDS011;50151;52.030;5.350;2023-07-24T01:42:37;2.85;;;2.50;;
63965;SDS011;50151;52.030;5.350;2023-07-24T01:45:04;3.10;;;2.40;;
63965;SDS011;50151;52.030;5.350;2023-07-24T01:47:31;2.72;;;2.20;;
63965;SDS011;50151;52.030;5.350;2023-07-24T01:49:58;3.22;;;2.00;;
63965;SDS011;50151;52.030;5.350;2023-07-24T01:52:25;3.53;;;2.15;;
63965;SDS011;50151;52.030;5.350;2023-07-24T01:54:52;3.03;;;2.50;;
63965;SDS011;50151;52.030;5.350;2023-07-24T01:57:19;2.92;;;2.20;;
63965;SDS011;50151;52.030;5.350;2023-07-24T01:59:45;2.67;;;1.98;;
63965;SDS011;50151;52.030;5.350;2023-07-24T02:02:12;2.83;;;2.20;;
63965;SDS011;50151;52.030;5.350;2023-07-24T02:04:39;5.75;;;2.10;;
63965;SDS011;50151;52.030;5.350;2023-07-24T02:07:06;4.60;;;2.17;;
63965;SDS011;50151;52.030;5.350;2023-07-24T02:09:32;4.03;;;2.40;;
63965;SDS011;50151;52.030;5.350;2023-07-24T02:11:59;3.25;;;2.10;;
63965;SDS011;50151;52.030;5.350;2023-07-24T02:14:26;4.15;;;2.05;;
63965;SDS011;50151;52.030;5.350;2023-07-24T02:16:53;3.67;;;2.10;;
63965;SDS011;50151;52.030;5.350;2023-07-24T02:19:19;2.88;;;2.30;;
63965;SDS011;50151;52.030;5.350;2023-07-24T02:21:46;3.58;;;2.53;;
63965;SDS011;50151;52.030;5.350;2023-07-24T02:24:13;4.70;;;2.60;;
63965;SDS011;50151;52.030;5.350;2023-07-24T02:26:39;3.00;;;2.50;;
63965;SDS011;50151;52.030;5.350;2023-07-24T02:29:06;3.22;;;2.20;;
63965;SDS011;50151;52.030;5.350;2023-07-24T02:31:33;3.53;;;2.22;;
63965;SDS011;50151;52.030;5.350;2023-07-24T02:34:00;5.45;;;2.00;;
63965;SDS011;50151;52.030;5.350;2023-07-24T02:36:26;5.03;;;1.75;;
63965;SDS011;50151;52.030;5.350;2023-07-24T02:38:54;2.78;;;2.08;;
63965;SDS011;50151;52.030;5.350;2023-07-24T02:41:20;2.65;;;1.88;;
63965;SDS011;50151;52.030;5.350;2023-07-24T02:43:47;2.50;;;1.70;;
63965;SDS011;50151;52.030;5.350;2023-07-24T02:46:14;3.47;;;2.08;;
63965;SDS011;50151;52.030;5.350;2023-07-24T02:48:40;3.90;;;2.10;;
63965;SDS011;50151;52.030;5.350;2023-07-24T02:51:07;4.20;;;2.00;;
63965;SDS011;50151;52.030;5.350;2023-07-24T02:53:34;4.63;;;2.35;;
63965;SDS011;50151;52.030;5.350;2023-07-24T02:56:01;5.55;;;2.20;;
63965;SDS011;50151;52.030;5.350;2023-07-24T02:58:29;3.83;;;2.45;;
63965;SDS011;50151;52.030;5.350;2023-07-24T03:01:04;3.20;;;2.00;;
63965;SDS011;50151;52.030;5.350;2023-07-24T03:03:33;2.65;;;2.00;;
63965;SDS011;50151;52.030;5.350;2023-07-24T03:06:00;3.00;;;2.20;;
63965;SDS011;50151;52.030;5.350;2023-07-24T03:08:27;3.05;;;2.28;;
63965;SDS011;50151;52.030;5.350;2023-07-24T03:10:54;4.18;;;2.35;;
63965;SDS011;50151;52.030;5.350;2023-07-24T03:13:21;2.78;;;2.15;;
63965;SDS011;50151;52.030;5.350;2023-07-24T03:15:54;4.15;;;2.50;;
63965;SDS011;50151;52.030;5.350;2023-07-24T03:18:22;3.88;;;2.85;;
63965;SDS011;50151;52.030;5.350;2023-07-24T03:20:49;4.78;;;2.60;;
63965;SDS011;50151;52.030;5.350;2023-07-24T03:23:16;3.15;;;2.30;;
63965;SDS011;50151;52.030;5.350;2023-07-24T03:25:43;3.80;;;2.80;;
63965;SDS011;50151;52.030;5.350;2023-07-24T03:28:09;3.40;;;2.65;;
63965;SDS011;50151;52.030;5.350;2023-07-24T03:30:36;9.63;;;2.92;;
63965;SDS011;50151;52.030;5.350;2023-07-24T03:33:03;4.38;;;2.95;;
63965;SDS011;50151;52.030;5.350;2023-07-24T03:35:30;3.55;;;2.85;;
63965;SDS011;50151;52.030;5.350;2023-07-24T03:37:57;5.50;;;3.10;;
63965;SDS011;50151;52.030;5.350;2023-07-24T03:40:24;3.90;;;2.95;;
63965;SDS011;50151;52.030;5.350;2023-07-24T03:42:50;4.32;;;3.53;;
63965;SDS011;50151;52.030;5.350;2023-07-24T03:45:17;5.28;;;3.10;;
63965;SDS011;50151;52.030;5.350;2023-07-24T03:47:44;4.75;;;3.13;;
63965;SDS011;50151;52.030;5.350;2023-07-24T03:50:11;5.05;;;3.28;;
63965;SDS011;50151;52.030;5.350;2023-07-24T03:52:38;3.60;;;3.00;;
63965;SDS011;50151;52.030;5.350;2023-07-24T03:55:05;4.38;;;3.28;;
63965;SDS011;50151;52.030;5.350;2023-07-24T03:57:34;4.10;;;3.30;;
63965;SDS011;50151;52.030;5.350;2023-07-24T04:00:01;5.32;;;3.67;;
63965;SDS011;50151;52.030;5.350;2023-07-24T04:02:28;5.85;;;3.72;;
63965;SDS011;50151;52.030;5.350;2023-07-24T04:04:55;4.82;;;4.10;;
63965;SDS011;50151;52.030;5.350;2023-07-24T04:07:22;5.70;;;4.20;;
63965;SDS011;50151;52.030;5.350;2023-07-24T04:09:48;5.57;;;3.88;;
63965;SDS011;50151;52.030;5.350;2023-07-24T04:12:15;7.18;;;4.00;;
63965;SDS011;50151;52.030;5.350;2023-07-24T04:14:42;5.32;;;3.60;;
63965;SDS011;50151;52.030;5.350;2023-07-24T04:17:09;7.75;;;4.00;;
63965;SDS011;50151;52.030;5.350;2023-07-24T04:19:35;5.45;;;3.38;;
63965;SDS011;50151;52.030;5.350;2023-07-24T04:22:02;5.68;;;3.45;;
63965;SDS011;50151;52.030;5.350;2023-07-24T04:24:29;4.78;;;3.55;;
63965;SDS011;50151;52.030;5.350;2023-07-24T04:26:56;4.75;;;3.65;;
63965;SDS011;50151;52.030;5.350;2023-07-24T04:29:23;6.95;;;3.85;;
63965;SDS011;50151;52.030;5.350;2023-07-24T04:31:52;6.95;;;3.92;;
63965;SDS011;50151;52.030;5.350;2023-07-24T04:34:18;9.05;;;3.92;;
63965;SDS011;50151;52.030;5.350;2023-07-24T04:36:45;5.22;;;3.58;;
63965;SDS011;50151;52.030;5.350;2023-07-24T04:39:12;5.32;;;3.88;;
63965;SDS011;50151;52.030;5.350;2023-07-24T04:41:38;5.93;;;4.13;;
63965;SDS011;50151;52.030;5.350;2023-07-24T04:44:05;5.35;;;3.88;;
63965;SDS011;50151;52.030;5.350;2023-07-24T04:46:32;4.68;;;3.53;;
63965;SDS011;50151;52.030;5.350;2023-07-24T04:48:59;4.75;;;3.70;;
63965;SDS011;50151;52.030;5.350;2023-07-24T04:51:26;4.70;;;3.78;;
63965;SDS011;50151;52.030;5.350;2023-07-24T04:53:53;6.57;;;4.18;;
63965;SDS011;50151;52.030;5.350;2023-07-24T04:56:20;6.72;;;4.03;;
63965;SDS011;50151;52.030;5.350;2023-07-24T04:58:46;5.95;;;4.07;;
63965;SDS011;50151;52.030;5.350;2023-07-24T05:01:13;6.13;;;3.58;;
63965;SDS011;50151;52.030;5.350;2023-07-24T05:03:39;6.18;;;4.18;;
63965;SDS011;50151;52.030;5.350;2023-07-24T05:06:06;8.45;;;4.68;;
63965;SDS011;50151;52.030;5.350;2023-07-24T05:08:33;8.75;;;4.30;;
63965;SDS011;50151;52.030;5.350;2023-07-24T05:10:59;5.22;;;4.03;;
63965;SDS011;50151;52.030;5.350;2023-07-24T05:13:26;7.82;;;4.65;;
63965;SDS011;50151;52.030;5.350;2023-07-24T05:15:53;6.55;;;4.55;;
63965;SDS011;50151;52.030;5.350;2023-07-24T05:18:20;10.05;;;4.90;;
63965;SDS011;50151;52.030;5.350;2023-07-24T05:20:47;7.90;;;4.90;;
63965;SDS011;50151;52.030;5.350;2023-07-24T05:23:17;6.78;;;4.93;;
63965;SDS011;50151;52.030;5.350;2023-07-24T05:25:43;9.13;;;4.57;;
63965;SDS011;50151;52.030;5.350;2023-07-24T05:28:10;6.90;;;4.30;;
63965;SDS011;50151;52.030;5.350;2023-07-24T05:30:37;7.85;;;4.63;;
63965;SDS011;50151;52.030;5.350;2023-07-24T05:33:04;8.57;;;4.63;;
63965;SDS011;50151;52.030;5.350;2023-07-24T05:35:31;9.93;;;5.03;;
63965;SDS011;50151;52.030;5.350;2023-07-24T05:37:57;7.47;;;4.70;;
63965;SDS011;50151;52.030;5.350;2023-07-24T05:40:24;9.25;;;5.35;;
63965;SDS011;50151;52.030;5.350;2023-07-24T05:42:51;11.23;;;5.00;;
63965;SDS011;50151;52.030;5.350;2023-07-24T05:45:17;7.60;;;4.72;;
63965;SDS011;50151;52.030;5.350;2023-07-24T05:47:44;10.25;;;4.72;;
63965;SDS011;50151;52.030;5.350;2023-07-24T05:50:11;6.88;;;4.60;;
63965;SDS011;50151;52.030;5.350;2023-07-24T05:52:40;11.10;;;4.82;;
63965;SDS011;50151;52.030;5.350;2023-07-24T05:55:07;10.13;;;4.82;;
63965;SDS011;50151;52.030;5.350;2023-07-24T05:57:34;8.65;;;4.93;;
63965;SDS011;50151;52.030;5.350;2023-07-24T06:00:02;10.85;;;5.35;;
63965;SDS011;50151;52.030;5.350;2023-07-24T06:02:29;8.50;;;4.68;;
63965;SDS011;50151;52.030;5.350;2023-07-24T06:04:56;8.23;;;5.45;;
63965;SDS011;50151;52.030;5.350;2023-07-24T06:07:23;9.45;;;4.72;;
63965;SDS011;50151;52.030;5.350;2023-07-24T06:09:50;10.13;;;5.30;;
63965;SDS011;50151;52.030;5.350;2023-07-24T06:12:16;9.18;;;4.65;;
63965;SDS011;50151;52.030;5.350;2023-07-24T06:14:43;8.77;;;5.13;;
63965;SDS011;50151;52.030;5.350;2023-07-24T06:17:10;10.18;;;5.07;;
63965;SDS011;50151;52.030;5.350;2023-07-24T06:19:36;7.25;;;5.10;;
63965;SDS011;50151;52.030;5.350;2023-07-24T06:22:03;9.88;;;5.30;;
63965;SDS011;50151;52.030;5.350;2023-07-24T06:24:30;10.23;;;5.60;;
63965;SDS011;50151;52.030;5.350;2023-07-24T06:26:56;18.52;;;4.90;;
63965;SDS011;50151;52.030;5.350;2023-07-24T06:29:23;12.00;;;5.35;;
63965;SDS011;50151;52.030;5.350;2023-07-24T06:31:51;7.13;;;4.93;;
63965;SDS011;50151;52.030;5.350;2023-07-24T06:34:17;8.23;;;5.00;;
63965;SDS011;50151;52.030;5.350;2023-07-24T06:36:44;14.50;;;5.68;;
63965;SDS011;50151;52.030;5.350;2023-07-24T06:39:11;11.15;;;5.63;;
63965;SDS011;50151;52.030;5.350;2023-07-24T06:41:38;11.13;;;5.15;;
63965;SDS011;50151;52.030;5.350;2023-07-24T06:44:04;9.23;;;5.47;;
63965;SDS011;50151;52.030;5.350;2023-07-24T06:46:31;8.75;;;5.38;;
63965;SDS011;50151;52.030;5.350;2023-07-24T06:48:58;11.45;;;5.40;;
63965;SDS011;50151;52.030;5.350;2023-07-24T06:51:24;12.15;;;5.03;;
63965;SDS011;50151;52.030;5.350;2023-07-24T06:53:51;9.88;;;5.60;;
63965;SDS011;50151;52.030;5.350;2023-07-24T06:56:18;10.40;;;5.57;;
63965;SDS011;50151;52.030;5.350;2023-07-24T06:58:47;9.35;;;5.22;;
63965;SDS011;50151;52.030;5.350;2023-07-24T07:01:14;9.30;;;5.38;;
63965;SDS011;50151;52.030;5.350;2023-07-24T07:03:41;7.13;;;5.38;;
63965;SDS011;50151;52.030;5.350;2023-07-24T07:06:08;7.47;;;4.55;;
63965;SDS011;50151;52.030;5.350;2023-07-24T07:08:53;8.82;;;4.47;;
63965;SDS011;50151;52.030;5.350;2023-07-24T07:11:20;8.18;;;4.57;;
63965;SDS011;50151;52.030;5.350;2023-07-24T07:13:47;9.07;;;5.50;;
63965;SDS011;50151;52.030;5.350;2023-07-24T07:16:13;7.20;;;5.03;;
63965;SDS011;50151;52.030;5.350;2023-07-24T07:18:43;8.30;;;5.22;;
63965;SDS011;50151;52.030;5.350;2023-07-24T07:21:09;10.07;;;5.50;;
63965;SDS011;50151;52.030;5.350;2023-07-24T07:23:36;9.13;;;5.45;;
63965;SDS011;50151;52.030;5.350;2023-07-24T07:26:03;6.82;;;4.93;;
63965;SDS011;50151;52.030;5.350;2023-07-24T07:28:30;9.23;;;4.95;;
63965;SDS011;50151;52.030;5.350;2023-07-24T07:30:57;9.60;;;4.55;;
63965;SDS011;50151;52.030;5.350;2023-07-24T07:33:23;11.80;;;5.07;;
63965;SDS011;50151;52.030;5.350;2023-07-24T07:35:51;7.03;;;4.43;;
63965;SDS011;50151;52.030;5.350;2023-07-24T07:38:17;9.93;;;5.07;;
63965;SDS011;50151;52.030;5.350;2023-07-24T07:40:45;7.18;;;5.10;;
63965;SDS011;50151;52.030;5.350;2023-07-24T07:43:13;9.55;;;6.18;;
63965;SDS011;50151;52.030;5.350;2023-07-24T07:45:39;7.55;;;4.63;;
63965;SDS011;50151;52.030;5.350;2023-07-24T07:48:06;9.32;;;5.20;;
63965;SDS011;50151;52.030;5.350;2023-07-24T07:50:33;8.57;;;5.10;;
63965;SDS011;50151;52.030;5.350;2023-07-24T07:53:00;9.32;;;5.82;;
63965;SDS011;50151;52.030;5.350;2023-07-24T07:55:26;10.15;;;6.25;;
63965;SDS011;50151;52.030;5.350;2023-07-24T07:57:53;7.78;;;5.15;;
63965;SDS011;50151;52.030;5.350;2023-07-24T08:00:20;9.18;;;5.30;;
63965;SDS011;50151;52.030;5.350;2023-07-24T08:02:47;7.53;;;4.47;;
63965;SDS011;50151;52.030;5.350;2023-07-24T08:05:13;8.95;;;4.95;;
63965;SDS011;50151;52.030;5.350;2023-07-24T08:07:46;6.13;;;4.18;;
63965;SDS011;50151;52.030;5.350;2023-07-24T08:10:13;8.60;;;4.65;;
63965;SDS011;50151;52.030;5.350;2023-07-24T08:12:42;9.20;;;4.03;;
63965;SDS011;50151;52.030;5.350;2023-07-24T08:15:10;7.68;;;3.92;;
63965;SDS011;50151;52.030;5.350;2023-07-24T08:17:37;9.68;;;3.95;;
63965;SDS011;50151;52.030;5.350;2023-07-24T08:20:04;8.32;;;4.35;;
63965;SDS011;50151;52.030;5.350;2023-07-24T08:22:31;7.50;;;4.47;;
63965;SDS011;50151;52.030;5.350;2023-07-24T08:24:58;8.45;;;4.45;;
63965;SDS011;50151;52.030;5.350;2023-07-24T08:27:25;8.13;;;4.60;;
63965;SDS011;50151;52.030;5.350;2023-07-24T08:29:53;11.63;;;5.22;;
63965;SDS011;50151;52.030;5.350;2023-07-24T08:32:20;12.48;;;5.15;;
63965;SDS011;50151;52.030;5.350;2023-07-24T08:34:47;10.43;;;5.13;;
63965;SDS011;50151;52.030;5.350;2023-07-24T08:37:13;10.32;;;5.53;;
63965;SDS011;50151;52.030;5.350;2023-07-24T08:39:40;7.03;;;4.60;;
63965;SDS011;50151;52.030;5.350;2023-07-24T08:42:08;9.43;;;5.80;;
63965;SDS011;50151;52.030;5.350;2023-07-24T08:44:38;10.57;;;6.40;;
63965;SDS011;50151;52.030;5.350;2023-07-24T08:47:06;9.27;;;5.47;;
63965;SDS011;50151;52.030;5.350;2023-07-24T08:49:37;9.50;;;5.70;;
63965;SDS011;50151;52.030;5.350;2023-07-24T08:52:06;11.75;;;5.82;;
63965;SDS011;50151;52.030;5.350;2023-07-24T08:54:39;9.73;;;5.67;;
63965;SDS011;50151;52.030;5.350;2023-07-24T08:57:06;8.50;;;4.78;;
63965;SDS011;50151;52.030;5.350;2023-07-24T08:59:34;7.85;;;5.03;;
63965;SDS011;50151;52.030;5.350;2023-07-24T09:02:01;10.60;;;5.00;;
63965;SDS011;50151;52.030;5.350;2023-07-24T09:04:28;9.57;;;4.60;;
63965;SDS011;50151;52.030;5.350;2023-07-24T09:06:56;9.82;;;4.75;;
63965;SDS011;50151;52.030;5.350;2023-07-24T09:09:28;9.77;;;4.63;;
63965;SDS011;50151;52.030;5.350;2023-07-24T09:11:55;9.98;;;4.45;;
63965;SDS011;50151;52.030;5.350;2023-07-24T09:14:25;8.98;;;4.38;;
63965;SDS011;50151;52.030;5.350;2023-07-24T09:17:03;7.30;;;3.90;;
63965;SDS011;50151;52.030;5.350;2023-07-24T09:19:35;8.02;;;4.40;;
63965;SDS011;50151;52.030;5.350;2023-07-24T09:22:12;7.50;;;4.28;;
63965;SDS011;50151;52.030;5.350;2023-07-24T09:24:50;10.48;;;4.32;;
63965;SDS011;50151;52.030;5.350;2023-07-24T09:27:18;9.23;;;3.90;;
63965;SDS011;50151;52.030;5.350;2023-07-24T09:29:46;8.82;;;4.20;;
63965;SDS011;50151;52.030;5.350;2023-07-24T09:32:23;10.82;;;4.40;;
63965;SDS011;50151;52.030;5.350;2023-07-24T09:34:51;10.00;;;4.57;;
63965;SDS011;50151;52.030;5.350;2023-07-24T09:37:24;8.68;;;4.22;;
63965;SDS011;50151;52.030;5.350;2023-07-24T09:39:56;6.93;;;3.95;;
63965;SDS011;50151;52.030;5.350;2023-07-24T09:42:32;8.98;;;4.07;;
63965;SDS011;50151;52.030;5.350;2023-07-24T09:45:00;5.43;;;3.65;;
63965;SDS011;50151;52.030;5.350;2023-07-24T09:47:28;9.55;;;3.92;;
63965;SDS011;50151;52.030;5.350;2023-07-24T09:50:15;9.07;;;4.25;;
63965;SDS011;50151;52.030;5.350;2023-07-24T09:52:42;9.50;;;3.90;;
63965;SDS011;50151;52.030;5.350;2023-07-24T09:55:11;8.70;;;3.40;;
63965;SDS011;50151;52.030;5.350;2023-07-24T09:57:41;9.35;;;3.83;;
63965;SDS011;50151;52.030;5.350;2023-07-24T10:00:11;9.57;;;3.90;;
63965;SDS011;50151;52.030;5.350;2023-07-24T10:02:39;7.53;;;3.70;;
63965;SDS011;50151;52.030;5.350;2023-07-24T10:05:06;6.75;;;3.13;;
63965;SDS011;50151;52.030;5.350;2023-07-24T10:07:34;6.43;;;3.70;;
63965;SDS011;50151;52.030;5.350;2023-07-24T10:10:01;9.70;;;3.85;;
63965;SDS011;50151;52.030;5.350;2023-07-24T10:12:28;6.70;;;3.58;;
63965;SDS011;50151;52.030;5.350;2023-07-24T10:14:57;9.18;;;4.28;;
63965;SDS011;50151;52.030;5.350;2023-07-24T10:17:35;9.50;;;3.80;;
63965;SDS011;50151;52.030;5.350;2023-07-24T10:20:03;6.72;;;3.42;;
63965;SDS011;50151;52.030;5.350;2023-07-24T10:22:31;8.57;;;3.25;;
63965;SDS011;50151;52.030;5.350;2023-07-24T10:24:59;10.85;;;3.88;;
63965;SDS011;50151;52.030;5.350;2023-07-24T10:27:26;9.25;;;3.80;;
63965;SDS011;50151;52.030;5.350;2023-07-24T10:29:58;6.53;;;3.70;;
63965;SDS011;50151;52.030;5.350;2023-07-24T10:32:48;7.57;;;3.08;;
63965;SDS011;50151;52.030;5.350;2023-07-24T10:35:20;9.43;;;3.50;;
63965;SDS011;50151;52.030;5.350;2023-07-24T10:37:49;7.28;;;3.22;;
63965;SDS011;50151;52.030;5.350;2023-07-24T10:40:26;10.30;;;3.30;;
63965;SDS011;50151;52.030;5.350;2023-07-24T10:43:26;8.70;;;3.75;;
63965;SDS011;50151;52.030;5.350;2023-07-24T10:45:50;7.03;;;3.35;;
63965;SDS011;50151;52.030;5.350;2023-07-24T10:48:19;5.72;;;3.00;;
63965;SDS011;50151;52.030;5.350;2023-07-24T10:50:47;12.05;;;3.60;;
63965;SDS011;50151;52.030;5.350;2023-07-24T10:53:20;12.52;;;3.70;;
63965;SDS011;50151;52.030;5.350;2023-07-24T10:55:47;9.40;;;3.65;;
63965;SDS011;50151;52.030;5.350;2023-07-24T10:58:16;11.23;;;3.80;;
63965;SDS011;50151;52.030;5.350;2023-07-24T11:00:43;8.02;;;3.78;;
63965;SDS011;50151;52.030;5.350;2023-07-24T11:03:11;5.72;;;3.97;;
63965;SDS011;50151;52.030;5.350;2023-07-24T11:05:42;5.00;;;3.30;;
63965;SDS011;50151;52.030;5.350;2023-07-24T11:10:46;6.50;;;4.20;;
63965;SDS011;50151;52.030;5.350;2023-07-24T11:13:19;8.07;;;4.07;;
63965;SDS011;50151;52.030;5.350;2023-07-24T11:15:48;7.20;;;3.80;;
63965;SDS011;50151;52.030;5.350;2023-07-24T11:18:15;7.40;;;4.00;;
63965;SDS011;50151;52.030;5.350;2023-07-24T11:20:52;10.27;;;3.88;;
63965;SDS011;50151;52.030;5.350;2023-07-24T11:23:20;8.80;;;3.90;;
63965;SDS011;50151;52.030;5.350;2023-07-24T11:25:46;7.57;;;4.25;;
63965;SDS011;50151;52.030;5.350;2023-07-24T11:28:16;9.45;;;4.20;;
63965;SDS011;50151;52.030;5.350;2023-07-24T11:30:42;8.07;;;4.88;;
63965;SDS011;50151;52.030;5.350;2023-07-24T11:33:10;8.55;;;5.30;;
63965;SDS011;50151;52.030;5.350;2023-07-24T11:35:42;10.75;;;4.75;;
63965;SDS011;50151;52.030;5.350;2023-07-24T11:38:08;11.38;;;5.22;;
63965;SDS011;50151;52.030;5.350;2023-07-24T11:40:37;10.82;;;5.07;;
63965;SDS011;50151;52.030;5.350;2023-07-24T11:43:05;16.98;;;5.45;;
63965;SDS011;50151;52.030;5.350;2023-07-24T11:45:49;8.50;;;4.60;;
63965;SDS011;50151;52.030;5.350;2023-07-24T11:48:21;8.45;;;4.70;;
63965;SDS011;50151;52.030;5.350;2023-07-24T11:50:58;8.93;;;4.85;;
63965;SDS011;50151;52.030;5.350;2023-07-24T11:53:29;11.10;;;4.28;;
63965;SDS011;50151;52.030;5.350;2023-07-24T11:56:00;7.85;;;4.70;;
63965;SDS011;50151;52.030;5.350;2023-07-24T11:58:30;9.38;;;4.97;;
63965;SDS011;50151;52.030;5.350;2023-07-24T12:00:57;7.32;;;4.55;;
63965;SDS011;50151;52.030;5.350;2023-07-24T12:03:24;8.38;;;4.80;;
63965;SDS011;50151;52.030;5.350;2023-07-24T12:05:52;8.52;;;4.53;;
63965;SDS011;50151;52.030;5.350;2023-07-24T12:08:20;9.40;;;4.28;;
63965;SDS011;50151;52.030;5.350;2023-07-24T12:10:50;7.95;;;4.72;;
63965;SDS011;50151;52.030;5.350;2023-07-24T12:13:16;8.27;;;4.50;;
63965;SDS011;50151;52.030;5.350;2023-07-24T12:15:46;9.13;;;4.50;;
63965;SDS011;50151;52.030;5.350;2023-07-24T12:18:14;10.15;;;5.20;;
63965;SDS011;50151;52.030;5.350;2023-07-24T12:20:41;8.38;;;4.70;;
63965;SDS011;50151;52.030;5.350;2023-07-24T12:23:08;5.68;;;4.60;;
63965;SDS011;50151;52.030;5.350;2023-07-24T12:25:35;10.07;;;4.90;;
63965;SDS011;50151;52.030;5.350;2023-07-24T12:28:01;8.43;;;4.38;;
63965;SDS011;50151;52.030;5.350;2023-07-24T12:30:28;12.25;;;4.90;;
63965;SDS011;50151;52.030;5.350;2023-07-24T12:32:55;8.75;;;4.70;;
63965;SDS011;50151;52.030;5.350;2023-07-24T12:35:22;8.35;;;4.65;;
63965;SDS011;50151;52.030;5.350;2023-07-24T12:37:48;6.75;;;4.57;;
63965;SDS011;50151;52.030;5.350;2023-07-24T12:40:15;6.88;;;4.60;;
63965;SDS011;50151;52.030;5.350;2023-07-24T12:42:42;8.02;;;4.70;;
63965;SDS011;50151;52.030;5.350;2023-07-24T12:45:08;8.10;;;4.47;;
63965;SDS011;50151;52.030;5.350;2023-07-24T12:47:35;9.45;;;4.65;;
63965;SDS011;50151;52.030;5.350;2023-07-24T12:50:02;9.43;;;4.60;;
63965;SDS011;50151;52.030;5.350;2023-07-24T12:52:33;6.97;;;4.30;;
63965;SDS011;50151;52.030;5.350;2023-07-24T12:54:59;10.63;;;4.80;;
63965;SDS011;50151;52.030;5.350;2023-07-24T12:57:28;8.77;;;4.45;;
63965;SDS011;50151;52.030;5.350;2023-07-24T12:59:55;10.20;;;4.35;;
63965;SDS011;50151;52.030;5.350;2023-07-24T13:02:22;9.25;;;4.45;;
63965;SDS011;50151;52.030;5.350;2023-07-24T13:04:48;6.20;;;4.40;;
63965;SDS011;50151;52.030;5.350;2023-07-24T13:07:15;9.10;;;4.50;;
63965;SDS011;50151;52.030;5.350;2023-07-24T13:09:42;8.18;;;4.68;;
63965;SDS011;50151;52.030;5.350;2023-07-24T13:12:09;6.75;;;4.38;;
63965;SDS011;50151;52.030;5.350;2023-07-24T13:14:36;6.18;;;4.00;;
63965;SDS011;50151;52.030;5.350;2023-07-24T13:17:07;8.20;;;4.40;;
63965;SDS011;50151;52.030;5.350;2023-07-24T13:19:34;13.95;;;4.93;;
63965;SDS011;50151;52.030;5.350;2023-07-24T13:22:01;6.70;;;4.55;;
63965;SDS011;50151;52.030;5.350;2023-07-24T13:24:28;5.65;;;4.07;;
63965;SDS011;50151;52.030;5.350;2023-07-24T13:26:55;7.72;;;3.85;;
63965;SDS011;50151;52.030;5.350;2023-07-24T13:29:21;8.68;;;4.65;;
63965;SDS011;50151;52.030;5.350;2023-07-24T13:31:51;6.45;;;4.50;;
63965;SDS011;50151;52.030;5.350;2023-07-24T13:34:18;9.90;;;4.75;;
63965;SDS011;50151;52.030;5.350;2023-07-24T13:36:48;7.07;;;4.32;;
63965;SDS011;50151;52.030;5.350;2023-07-24T13:39:14;9.25;;;4.55;;
63965;SDS011;50151;52.030;5.350;2023-07-24T13:41:41;8.73;;;4.63;;
63965;SDS011;50151;52.030;5.350;2023-07-24T13:44:09;6.75;;;3.70;;
63965;SDS011;50151;52.030;5.350;2023-07-24T13:46:36;7.95;;;4.85;;
63965;SDS011;50151;52.030;5.350;2023-07-24T13:49:05;10.20;;;4.80;;
63965;SDS011;50151;52.030;5.350;2023-07-24T13:51:33;7.97;;;4.38;;
63965;SDS011;50151;52.030;5.350;2023-07-24T13:53:59;11.00;;;5.03;;
63965;SDS011;50151;52.030;5.350;2023-07-24T13:56:28;7.07;;;4.93;;
63965;SDS011;50151;52.030;5.350;2023-07-24T13:58:57;8.85;;;5.00;;
63965;SDS011;50151;52.030;5.350;2023-07-24T14:01:24;9.27;;;4.78;;
63965;SDS011;50151;52.030;5.350;2023-07-24T14:03:51;6.53;;;4.10;;
63965;SDS011;50151;52.030;5.350;2023-07-24T14:06:18;7.70;;;4.15;;
63965;SDS011;50151;52.030;5.350;2023-07-24T14:08:44;6.40;;;4.07;;
63965;SDS011;50151;52.030;5.350;2023-07-24T14:11:11;6.50;;;4.15;;
63965;SDS011;50151;52.030;5.350;2023-07-24T14:13:38;7.93;;;3.40;;
63965;SDS011;50151;52.030;5.350;2023-07-24T14:16:05;7.65;;;3.30;;
63965;SDS011;50151;52.030;5.350;2023-07-24T14:18:31;6.18;;;3.47;;
63965;SDS011;50151;52.030;5.350;2023-07-24T14:20:58;8.38;;;3.28;;
63965;SDS011;50151;52.030;5.350;2023-07-24T14:23:25;8.10;;;3.53;;
63965;SDS011;50151;52.030;5.350;2023-07-24T14:25:52;6.60;;;2.75;;
63965;SDS011;50151;52.030;5.350;2023-07-24T14:28:19;6.60;;;2.80;;
63965;SDS011;50151;52.030;5.350;2023-07-24T14:30:46;4.82;;;3.40;;
63965;SDS011;50151;52.030;5.350;2023-07-24T14:33:13;8.30;;;3.50;;
63965;SDS011;50151;52.030;5.350;2023-07-24T14:35:40;5.05;;;3.35;;
63965;SDS011;50151;52.030;5.350;2023-07-24T14:38:06;9.43;;;3.50;;
63965;SDS011;50151;52.030;5.350;2023-07-24T14:40:33;4.80;;;2.80;;
63965;SDS011;50151;52.030;5.350;2023-07-24T14:43:00;5.38;;;3.20;;
63965;SDS011;50151;52.030;5.350;2023-07-24T14:45:32;6.57;;;2.97;;
63965;SDS011;50151;52.030;5.350;2023-07-24T14:47:59;5.20;;;3.08;;
63965;SDS011;50151;52.030;5.350;2023-07-24T14:50:26;7.72;;;3.33;;
63965;SDS011;50151;52.030;5.350;2023-07-24T14:52:53;4.07;;;2.65;;
63965;SDS011;50151;52.030;5.350;2023-07-24T14:55:19;5.82;;;2.58;;
63965;SDS011;50151;52.030;5.350;2023-07-24T14:57:46;7.13;;;2.10;;